| time (UTC) | temp C | wind direction | speed KPH | gust KPH | rain 1hr cm | rain 24hr cm | rain mn cm | humidity % | barometer mb |
| 20260508204811 | 16 | 221 | 24.1 | 32.2 | 0.00 | 0.00 | 0.00 | 52 | 1031.6 |
| 20260508203812 | 16 | 226 | 25.7 | 30.6 | 0.00 | 0.00 | 0.00 | 54 | 1031.8 |
| 20260508202814 | 16 | 222 | 22.5 | 33.8 | 0.00 | 0.00 | 0.00 | 55 | 1032.0 |
| 20260508201909 | 16 | 223 | 19.3 | 30.6 | 0.00 | 0.00 | 0.00 | 55 | 1031.8 |
| 20260508200913 | 15 | 223 | 19.3 | 25.7 | 0.00 | 0.00 | 0.00 | 56 | 1031.9 |
| 20260508200009 | 15 | 227 | 20.9 | 29.0 | 0.00 | 0.00 | 0.00 | 55 | 1031.8 |
| 20260508195010 | 15 | 232 | 22.5 | 33.8 | 0.00 | 0.00 | 0.00 | 56 | 1032.0 |
| 20260508194011 | 15 | 226 | 20.9 | 29.0 | 0.00 | 0.00 | 0.00 | 57 | 1032.1 |
| 20260508192111 | 15 | 219 | 24.1 | 37.0 | 0.00 | 0.00 | 0.00 | 58 | 1032.1 |
| 20260508190212 | 15 | 228 | 20.9 | 33.8 | 0.00 | 0.00 | 0.00 | 59 | 1032.1 |
| 20260508185211 | 14 | 217 | 25.7 | 38.6 | 0.00 | 0.00 | 0.00 | 59 | 1032.1 |
| 20260508183212 | 14 | 220 | 20.9 | 32.2 | 0.00 | 0.00 | 0.00 | 61 | 1032.1 |
| 20260508182311 | 13 | 219 | 20.9 | 32.2 | 0.00 | 0.00 | 0.00 | 62 | 1032.0 |
| 20260508180411 | 13 | 224 | 22.5 | 30.6 | 0.00 | 0.00 | 0.00 | 63 | 1031.6 |
| 20260508174511 | 13 | 218 | 14.5 | 22.5 | 0.00 | 0.00 | 0.00 | 65 | 1031.9 |
| 20260508173513 | 12 | 225 | 12.9 | 17.7 | 0.00 | 0.00 | 0.00 | 66 | 1031.5 |
| 20260508172610 | 12 | 225 | 11.3 | 19.3 | 0.00 | 0.00 | 0.00 | 67 | 1031.8 |
| 20260508171612 | 12 | 226 | 17.7 | 22.5 | 0.00 | 0.00 | 0.00 | 67 | 1031.8 |
| 20260508170611 | 12 | 224 | 14.5 | 19.3 | 0.00 | 0.00 | 0.00 | 67 | 1031.7 |
| 20260508165610 | 12 | 233 | 12.9 | 16.1 | 0.00 | 0.00 | 0.00 | 67 | 1031.3 |
| 20260508165511 | 12 | 224 | 14.5 | 19.3 | 0.00 | 0.00 | 0.00 | 67 | 1031.3 |
| 20260508164510 | 12 | 228 | 12.9 | 24.1 | 0.00 | 0.00 | 0.00 | 68 | 1031.4 |
| 20260508164412 | 12 | 225 | 14.5 | 17.7 | 0.00 | 0.00 | 0.00 | 67 | 1031.3 |
| 20260508163412 | 12 | 234 | 12.9 | 19.3 | 0.00 | 0.00 | 0.00 | 67 | 1031.4 |
| 20260508163311 | 12 | 236 | 12.9 | 17.7 | 0.00 | 0.00 | 0.00 | 68 | 1031.3 |
| 20260508162310 | 11 | 231 | 17.7 | 22.5 | 0.00 | 0.00 | 0.00 | 67 | 1031.1 |
| 20260508161312 | 11 | 246 | 19.3 | 24.1 | 0.00 | 0.00 | 0.00 | 68 | 1031.2 |
| 20260508160411 | 11 | 240 | 12.9 | 20.9 | 0.00 | 0.00 | 0.00 | 69 | 1031.1 |
| 20260508155410 | 11 | 246 | 19.3 | 24.1 | 0.00 | 0.00 | 0.00 | 68 | 1031.2 |
| 20260508155312 | 12 | 237 | 16.1 | 19.3 | 0.00 | 0.00 | 0.00 | 67 | 1031.2 |
| 20260508152410 | 12 | 235 | 25.7 | 40.2 | 0.00 | 0.00 | 0.00 | 66 | 1031.3 |
| 20260508150411 | 12 | 235 | 17.7 | 24.1 | 0.00 | 0.00 | 0.00 | 67 | 1031.2 |
| 20260508145411 | 12 | 226 | 12.9 | 17.7 | 0.00 | 0.00 | 0.00 | 68 | 1031.1 |
| 20260508144412 | 12 | 224 | 17.7 | 20.9 | 0.00 | 0.00 | 0.00 | 68 | 1030.9 |
| 20260508143412 | 12 | 222 | 22.5 | 29.0 | 0.00 | 0.00 | 0.00 | 67 | 1030.9 |
| 20260508142512 | 12 | 222 | 25.7 | 37.0 | 0.00 | 0.00 | 0.00 | 65 | 1030.7 |
| 20260508140511 | 12 | 225 | 24.1 | 38.6 | 0.00 | 0.00 | 0.00 | 64 | 1030.0 |
| 20260508134510 | 13 | 226 | 20.9 | 29.0 | 0.00 | 0.00 | 0.00 | 62 | 1029.8 |
| 20260508134411 | 13 | 226 | 22.5 | 30.6 | 0.00 | 0.00 | 0.00 | 62 | 1029.7 |
| 20260508133412 | 13 | 233 | 20.9 | 25.7 | 0.00 | 0.00 | 0.00 | 60 | 1029.3 |
| 20260508132412 | 13 | 227 | 16.1 | 20.9 | 0.00 | 0.00 | 0.00 | 60 | 1029.4 |
| 20260508131412 | 13 | 237 | 17.7 | 24.1 | 0.00 | 0.00 | 0.00 | 59 | 1029.2 |
| 20260508130511 | 13 | 226 | 16.1 | 22.5 | 0.00 | 0.00 | 0.00 | 60 | 1028.8 |
| 20260508125511 | 13 | 229 | 19.3 | 25.7 | 0.00 | 0.00 | 0.00 | 64 | 1029.0 |
| 20260508124511 | 13 | 237 | 14.5 | 19.3 | 0.00 | 0.00 | 0.00 | 65 | 1028.8 |
| 20260508123511 | 13 | 222 | 19.3 | 25.7 | 0.00 | 0.00 | 0.00 | 66 | 1028.7 |
| 20260508122511 | 13 | 224 | 17.7 | 25.7 | 0.00 | 0.00 | 0.00 | 66 | 1028.8 |
| 20260508122411 | 13 | 230 | 20.9 | 29.0 | 0.00 | 0.00 | 0.00 | 66 | 1028.4 |
| 20260508115511 | 12 | 225 | 14.5 | 17.7 | 0.00 | 0.00 | 0.00 | 71 | 1028.4 |
| 20260508114610 | 12 | 225 | 12.9 | 16.1 | 0.00 | 0.00 | 0.00 | 74 | 1028.2 |
| 20260508113612 | 11 | 224 | 12.9 | 20.9 | 0.00 | 0.00 | 0.00 | 81 | 1028.3 |
| 20260508112612 | 10 | 216 | 3.2 | 6.4 | 0.00 | 0.00 | 0.00 | 83 | 1028.3 |
| 20260508110511 | 10 | 180 | 0.0 | 0.0 | 0.00 | 0.00 | 0.00 | 82 | 1028.2 |
| 20260508105511 | 10 | 180 | 0.0 | 0.0 | 0.00 | 0.00 | 0.00 | 81 | 1028.0 |
| 20260508104512 | 10 | 180 | 0.0 | 0.0 | 0.00 | 0.00 | 0.00 | 81 | 1027.9 |
| 20260508100612 | 10 | 180 | 0.0 | 0.0 | 0.00 | 0.00 | 0.00 | 80 | 1027.9 |
| 20260508095711 | 10 | 180 | 0.0 | 0.0 | 0.00 | 0.00 | 0.00 | 80 | 1027.9 |
| 20260508093712 | 10 | 180 | 0.0 | 0.0 | 0.00 | 0.00 | 0.00 | 79 | 1027.7 |
| 20260508091911 | 10 | 195 | 0.0 | 0.0 | 0.00 | 0.00 | 0.00 | 79 | 1027.7 |
| 20260508090911 | 10 | 202 | 0.0 | 0.0 | 0.00 | 0.00 | 0.00 | 79 | 1027.5 |
| 20260508085912 | 10 | 202 | 0.0 | 0.0 | 0.00 | 0.00 | 0.00 | 78 | 1027.5 |
| 20260508084912 | 10 | 202 | 0.0 | 0.0 | 0.00 | 0.00 | 0.00 | 77 | 1027.5 |
| 20260508083912 | 10 | 202 | 0.0 | 0.0 | 0.00 | 0.00 | 0.00 | 75 | 1027.5 |
| 20260508082911 | 10 | 202 | 0.0 | 0.0 | 0.00 | 0.00 | 0.00 | 75 | 1027.4 |
| 20260508082010 | 10 | 202 | 0.0 | 0.0 | 0.00 | 0.00 | 0.00 | 73 | 1027.5 |
| 20260508081011 | 10 | 202 | 0.0 | 0.0 | 0.00 | 0.00 | 0.00 | 74 | 1027.4 |
| 20260508080111 | 10 | 202 | 0.0 | 0.0 | 0.00 | 0.00 | 0.00 | 74 | 1027.4 |
| 20260508074113 | 11 | 202 | 0.0 | 0.0 | 0.00 | 0.00 | 0.00 | 72 | 1027.2 |
| 20260508072211 | 11 | 202 | 0.0 | 0.0 | 0.00 | 0.00 | 0.00 | 69 | 1027.3 |
| 20260508071213 | 11 | 202 | 0.0 | 0.0 | 0.00 | 0.00 | 0.00 | 68 | 1027.2 |
| 20260508070212 | 11 | 202 | 0.0 | 0.0 | 0.00 | 0.00 | 0.00 | 67 | 1027.2 |
| 20260508065220 | 11 | 202 | 0.0 | 0.0 | 0.00 | 0.00 | 0.00 | 67 | 1027.3 |
| 20260508064220 | 11 | 202 | 0.0 | 0.0 | 0.00 | 0.00 | 0.00 | 68 | 1027.2 |
| 20260508063221 | 12 | 202 | 0.0 | 0.0 | 0.00 | 0.00 | 0.00 | 69 | 1027.3 |
| 20260508062220 | 12 | 202 | 0.0 | 0.0 | 0.00 | 0.00 | 0.00 | 67 | 1027.3 |
| 20260508061221 | 12 | 202 | 0.0 | 0.0 | 0.00 | 0.00 | 0.00 | 66 | 1027.2 |
| 20260508060223 | 12 | 202 | 0.0 | 0.0 | 0.00 | 0.00 | 0.00 | 65 | 1027.2 |
| 20260508055220 | 12 | 202 | 0.0 | 0.0 | 0.00 | 0.00 | 0.00 | 68 | 1027.2 |
| 20260508054222 | 12 | 202 | 0.0 | 0.0 | 0.00 | 0.00 | 0.00 | 67 | 1027.2 |
| 20260508053219 | 13 | 225 | 0.0 | 0.0 | 0.00 | 0.00 | 0.00 | 68 | 1027.3 |
| 20260508052220 | 13 | 225 | 0.0 | 0.0 | 0.00 | 0.00 | 0.00 | 67 | 1027.2 |
| 20260508050319 | 13 | 225 | 0.0 | 0.0 | 0.00 | 0.00 | 0.00 | 67 | 1027.3 |
| 20260508045321 | 14 | 225 | 0.0 | 0.0 | 0.00 | 0.00 | 0.00 | 66 | 1027.2 |
| 20260508044320 | 14 | 225 | 1.6 | 3.2 | 0.00 | 0.00 | 0.00 | 66 | 1027.1 |
| 20260508043321 | 14 | 202 | 0.0 | 0.0 | 0.00 | 0.00 | 0.00 | 64 | 1027.2 |
| 20260508042322 | 15 | 202 | 0.0 | 0.0 | 0.00 | 0.00 | 0.00 | 60 | 1027.1 |
| 20260508041321 | 16 | 202 | 0.0 | 0.0 | 0.00 | 0.00 | 0.00 | 53 | 1027.1 |
| 20260508040321 | 16 | 202 | 0.0 | 0.0 | 0.00 | 0.00 | 0.00 | 55 | 1027.1 |
| 20260508034321 | 17 | 225 | 6.4 | 9.7 | 0.00 | 0.00 | 0.00 | 49 | 1026.6 |
| 20260508033319 | 17 | 225 | 8.0 | 9.7 | 0.00 | 0.00 | 0.00 | 46 | 1026.5 |
| 20260508032321 | 17 | 225 | 8.0 | 11.3 | 0.00 | 0.00 | 0.00 | 44 | 1026.4 |
| 20260508031419 | 18 | 229 | 6.4 | 9.7 | 0.00 | 0.00 | 0.00 | 43 | 1026.4 |
| 20260508030421 | 18 | 229 | 8.0 | 11.3 | 0.00 | 0.00 | 0.00 | 41 | 1026.3 |
| 20260508025420 | 18 | 225 | 11.3 | 14.5 | 0.00 | 0.00 | 0.00 | 40 | 1026.3 |
| 20260508024420 | 18 | 225 | 9.7 | 17.7 | 0.00 | 0.00 | 0.00 | 39 | 1026.3 |
| 20260508023421 | 19 | 223 | 16.1 | 20.9 | 0.00 | 0.00 | 0.00 | 38 | 1026.4 |
| 20260508022422 | 19 | 225 | 17.7 | 22.5 | 0.00 | 0.00 | 0.00 | 37 | 1026.3 |
| 20260508022319 | 19 | 227 | 16.1 | 19.3 | 0.00 | 0.00 | 0.00 | 38 | 1026.4 |
| 20260508021321 | 20 | 225 | 16.1 | 25.7 | 0.00 | 0.00 | 0.00 | 38 | 1026.3 |
| 20260508021219 | 20 | 225 | 16.1 | 20.9 | 0.00 | 0.00 | 0.00 | 38 | 1026.4 |
| 20260508020220 | 20 | 223 | 17.7 | 25.7 | 0.00 | 0.00 | 0.00 | 37 | 1026.2 |
| 20260508015221 | 20 | 218 | 11.3 | 17.7 | 0.00 | 0.00 | 0.00 | 36 | 1026.2 |
| 20260508014319 | 20 | 226 | 16.1 | 22.5 | 0.00 | 0.00 | 0.00 | 36 | 1026.1 |
| 20260508014220 | 20 | 227 | 17.7 | 20.9 | 0.00 | 0.00 | 0.00 | 36 | 1026.2 |
| 20260508013221 | 20 | 225 | 19.3 | 29.0 | 0.00 | 0.00 | 0.00 | 36 | 1026.2 |
| 20260508013119 | 20 | 226 | 14.5 | 22.5 | 0.00 | 0.00 | 0.00 | 36 | 1026.3 |
| 20260508012122 | 20 | 227 | 19.3 | 25.7 | 0.00 | 0.00 | 0.00 | 36 | 1026.2 |
| 20260508011219 | 20 | 224 | 17.7 | 22.5 | 0.00 | 0.00 | 0.00 | 36 | 1026.2 |
| 20260508010221 | 20 | 228 | 22.5 | 29.0 | 0.00 | 0.00 | 0.00 | 36 | 1026.4 |
| 20260508005220 | 20 | 224 | 20.9 | 27.4 | 0.00 | 0.00 | 0.00 | 35 | 1026.6 |
| 20260508004221 | 20 | 221 | 20.9 | 29.0 | 0.00 | 0.00 | 0.00 | 36 | 1026.6 |
| 20260508003221 | 20 | 223 | 20.9 | 29.0 | 0.00 | 0.00 | 0.00 | 35 | 1026.6 |
| 20260508002221 | 20 | 226 | 22.5 | 37.0 | 0.00 | 0.00 | 0.00 | 36 | 1026.6 |
| 20260508001320 | 20 | 223 | 22.5 | 29.0 | 0.00 | 0.00 | 0.00 | 35 | 1026.5 |
| 20260508000322 | 20 | 225 | 25.7 | 35.4 | 0.00 | 0.00 | 0.00 | 35 | 1026.5 |
| 20260507235419 | 20 | 225 | 24.1 | 35.4 | 0.00 | 0.00 | 0.00 | 37 | 1026.5 |
| 20260507235320 | 20 | 217 | 22.5 | 32.2 | 0.00 | 0.00 | 0.00 | 37 | 1026.6 |
| 20260507234418 | 20 | 226 | 27.4 | 35.4 | 0.00 | 0.00 | 0.00 | 37 | 1026.7 |
| 20260507233421 | 20 | 220 | 20.9 | 30.6 | 0.00 | 0.00 | 0.00 | 37 | 1026.6 |
| 20260507232420 | 20 | 226 | 19.3 | 24.1 | 0.00 | 0.00 | 0.00 | 37 | 1026.7 |
| 20260507231420 | 20 | 223 | 24.1 | 32.2 | 0.00 | 0.00 | 0.00 | 37 | 1026.8 |
| 20260507230420 | 19 | 225 | 25.7 | 30.6 | 0.00 | 0.00 | 0.00 | 37 | 1027.0 |
| 20260507224519 | 19 | 223 | 20.9 | 25.7 | 0.00 | 0.00 | 0.00 | 39 | 1027.2 |
| 20260507222520 | 19 | 214 | 19.3 | 29.0 | 0.00 | 0.00 | 0.00 | 41 | 1027.3 |
| 20260507221521 | 18 | 226 | 22.5 | 32.2 | 0.00 | 0.00 | 0.00 | 42 | 1027.4 |
| 20260507220522 | 18 | 221 | 24.1 | 32.2 | 0.00 | 0.00 | 0.00 | 42 | 1027.5 |
| 20260507215521 | 18 | 223 | 20.9 | 27.4 | 0.00 | 0.00 | 0.00 | 43 | 1027.6 |
| 20260507214619 | 18 | 217 | 25.7 | 32.2 | 0.00 | 0.00 | 0.00 | 46 | 1027.9 |
| 20260507214519 | 18 | 222 | 25.7 | 35.4 | 0.00 | 0.00 | 0.00 | 47 | 1027.8 |
| 20260507213520 | 18 | 226 | 24.1 | 35.4 | 0.00 | 0.00 | 0.00 | 48 | 1028.0 |
| 20260507211619 | 18 | 225 | 27.4 | 33.8 | 0.00 | 0.00 | 0.00 | 51 | 1028.0 |
| 20260507210620 | 17 | 225 | 24.1 | 30.6 | 0.00 | 0.00 | 0.00 | 52 | 1028.1 |
| 20260507205719 | 17 | 227 | 20.9 | 27.4 | 0.00 | 0.00 | 0.00 | 54 | 1028.3 |